sensor_id;sensor_type;location;lat;lon;timestamp;P1;durP1;ratioP1;P2;durP2;ratioP2
51312;SDS011;37397;53.226;10.400;2023-04-25T00:01:49;8.40;;;3.78;;
51312;SDS011;37397;53.226;10.400;2023-04-25T00:04:17;10.23;;;4.30;;
51312;SDS011;37397;53.226;10.400;2023-04-25T00:06:44;7.13;;;3.70;;
51312;SDS011;37397;53.226;10.400;2023-04-25T00:09:11;7.53;;;4.38;;
51312;SDS011;37397;53.226;10.400;2023-04-25T00:11:37;8.40;;;3.85;;
51312;SDS011;37397;53.226;10.400;2023-04-25T00:14:04;8.93;;;4.05;;
51312;SDS011;37397;53.226;10.400;2023-04-25T00:16:31;8.35;;;3.85;;
51312;SDS011;37397;53.226;10.400;2023-04-25T00:19:00;9.60;;;4.28;;
51312;SDS011;37397;53.226;10.400;2023-04-25T00:21:29;7.50;;;4.22;;
51312;SDS011;37397;53.226;10.400;2023-04-25T00:23:57;8.30;;;4.00;;
51312;SDS011;37397;53.226;10.400;2023-04-25T00:26:24;7.80;;;3.60;;
51312;SDS011;37397;53.226;10.400;2023-04-25T00:28:51;6.05;;;3.97;;
51312;SDS011;37397;53.226;10.400;2023-04-25T00:31:18;6.38;;;3.63;;
51312;SDS011;37397;53.226;10.400;2023-04-25T00:33:44;8.65;;;3.92;;
51312;SDS011;37397;53.226;10.400;2023-04-25T00:36:11;8.13;;;4.07;;
51312;SDS011;37397;53.226;10.400;2023-04-25T00:38:37;8.07;;;3.70;;
51312;SDS011;37397;53.226;10.400;2023-04-25T00:41:05;9.18;;;4.20;;
51312;SDS011;37397;53.226;10.400;2023-04-25T00:43:33;9.07;;;3.90;;
51312;SDS011;37397;53.226;10.400;2023-04-25T00:46:02;8.80;;;4.07;;
51312;SDS011;37397;53.226;10.400;2023-04-25T00:48:29;8.90;;;3.80;;
51312;SDS011;37397;53.226;10.400;2023-04-25T00:50:59;7.63;;;3.97;;
51312;SDS011;37397;53.226;10.400;2023-04-25T00:53:27;6.95;;;4.07;;
51312;SDS011;37397;53.226;10.400;2023-04-25T00:55:54;8.63;;;4.03;;
51312;SDS011;37397;53.226;10.400;2023-04-25T00:58:21;10.10;;;4.47;;
51312;SDS011;37397;53.226;10.400;2023-04-25T01:00:50;8.82;;;4.10;;
51312;SDS011;37397;53.226;10.400;2023-04-25T01:03:18;9.10;;;4.55;;
51312;SDS011;37397;53.226;10.400;2023-04-25T01:05:48;8.80;;;5.07;;
51312;SDS011;37397;53.226;10.400;2023-04-25T01:08:15;9.45;;;4.80;;
51312;SDS011;37397;53.226;10.400;2023-04-25T01:10:41;8.30;;;4.53;;
51312;SDS011;37397;53.226;10.400;2023-04-25T01:13:08;9.60;;;4.30;;
51312;SDS011;37397;53.226;10.400;2023-04-25T01:15:35;9.95;;;5.32;;
51312;SDS011;37397;53.226;10.400;2023-04-25T01:18:02;12.23;;;5.13;;
51312;SDS011;37397;53.226;10.400;2023-04-25T01:20:31;9.95;;;5.38;;
51312;SDS011;37397;53.226;10.400;2023-04-25T01:22:59;6.88;;;4.30;;
51312;SDS011;37397;53.226;10.400;2023-04-25T01:25:28;7.88;;;4.45;;
51312;SDS011;37397;53.226;10.400;2023-04-25T01:27:57;9.40;;;4.43;;
51312;SDS011;37397;53.226;10.400;2023-04-25T01:30:26;9.00;;;4.25;;
51312;SDS011;37397;53.226;10.400;2023-04-25T01:32:55;9.70;;;4.50;;
51312;SDS011;37397;53.226;10.400;2023-04-25T01:35:22;9.75;;;4.05;;
51312;SDS011;37397;53.226;10.400;2023-04-25T01:37:52;14.80;;;5.30;;
51312;SDS011;37397;53.226;10.400;2023-04-25T01:40:19;10.88;;;4.00;;
51312;SDS011;37397;53.226;10.400;2023-04-25T01:42:47;12.60;;;4.13;;
51312;SDS011;37397;53.226;10.400;2023-04-25T01:45:14;13.88;;;4.30;;
51312;SDS011;37397;53.226;10.400;2023-04-25T01:47:41;16.50;;;3.92;;
51312;SDS011;37397;53.226;10.400;2023-04-25T01:50:10;17.25;;;4.60;;
51312;SDS011;37397;53.226;10.400;2023-04-25T01:52:37;13.52;;;3.45;;
51312;SDS011;37397;53.226;10.400;2023-04-25T01:55:06;16.10;;;4.38;;
51312;SDS011;37397;53.226;10.400;2023-04-25T01:57:34;16.35;;;4.95;;
51312;SDS011;37397;53.226;10.400;2023-04-25T02:00:03;15.77;;;4.22;;
51312;SDS011;37397;53.226;10.400;2023-04-25T02:02:38;16.10;;;4.03;;
51312;SDS011;37397;53.226;10.400;2023-04-25T02:05:14;15.50;;;3.67;;
51312;SDS011;37397;53.226;10.400;2023-04-25T02:07:42;18.95;;;4.70;;
51312;SDS011;37397;53.226;10.400;2023-04-25T02:10:09;22.15;;;4.72;;
51312;SDS011;37397;53.226;10.400;2023-04-25T02:12:48;17.20;;;4.30;;
51312;SDS011;37397;53.226;10.400;2023-04-25T02:15:32;15.82;;;4.40;;
51312;SDS011;37397;53.226;10.400;2023-04-25T02:18:09;21.17;;;4.75;;
51312;SDS011;37397;53.226;10.400;2023-04-25T02:20:36;22.75;;;5.05;;
51312;SDS011;37397;53.226;10.400;2023-04-25T02:23:03;20.13;;;4.15;;
51312;SDS011;37397;53.226;10.400;2023-04-25T02:25:30;17.02;;;4.80;;
51312;SDS011;37397;53.226;10.400;2023-04-25T02:27:57;19.90;;;4.32;;
51312;SDS011;37397;53.226;10.400;2023-04-25T02:30:23;18.90;;;4.57;;
51312;SDS011;37397;53.226;10.400;2023-04-25T02:32:50;20.80;;;4.95;;
51312;SDS011;37397;53.226;10.400;2023-04-25T02:35:16;16.65;;;4.45;;
51312;SDS011;37397;53.226;10.400;2023-04-25T02:37:44;18.58;;;4.53;;
51312;SDS011;37397;53.226;10.400;2023-04-25T02:40:12;15.63;;;4.50;;
51312;SDS011;37397;53.226;10.400;2023-04-25T02:42:38;23.20;;;4.80;;
51312;SDS011;37397;53.226;10.400;2023-04-25T02:45:05;24.48;;;5.13;;
51312;SDS011;37397;53.226;10.400;2023-04-25T02:47:32;19.15;;;4.80;;
51312;SDS011;37397;53.226;10.400;2023-04-25T02:49:58;20.23;;;5.45;;
51312;SDS011;37397;53.226;10.400;2023-04-25T02:52:25;22.40;;;4.43;;
51312;SDS011;37397;53.226;10.400;2023-04-25T02:54:58;17.53;;;4.47;;
51312;SDS011;37397;53.226;10.400;2023-04-25T02:57:27;18.23;;;4.93;;
51312;SDS011;37397;53.226;10.400;2023-04-25T02:59:53;20.15;;;4.30;;
51312;SDS011;37397;53.226;10.400;2023-04-25T03:02:20;22.90;;;4.80;;
51312;SDS011;37397;53.226;10.400;2023-04-25T03:04:46;23.70;;;5.35;;
51312;SDS011;37397;53.226;10.400;2023-04-25T03:07:14;19.45;;;4.53;;
51312;SDS011;37397;53.226;10.400;2023-04-25T03:09:40;20.23;;;5.45;;
51312;SDS011;37397;53.226;10.400;2023-04-25T03:12:07;22.05;;;4.82;;
51312;SDS011;37397;53.226;10.400;2023-04-25T03:14:34;22.17;;;5.15;;
51312;SDS011;37397;53.226;10.400;2023-04-25T03:17:00;24.58;;;5.30;;
51312;SDS011;37397;53.226;10.400;2023-04-25T03:19:27;31.10;;;6.15;;
51312;SDS011;37397;53.226;10.400;2023-04-25T03:21:54;22.08;;;5.15;;
51312;SDS011;37397;53.226;10.400;2023-04-25T03:24:21;24.35;;;6.07;;
51312;SDS011;37397;53.226;10.400;2023-04-25T03:26:48;27.00;;;5.82;;
51312;SDS011;37397;53.226;10.400;2023-04-25T03:29:14;20.77;;;5.07;;
51312;SDS011;37397;53.226;10.400;2023-04-25T03:31:42;24.83;;;5.90;;
51312;SDS011;37397;53.226;10.400;2023-04-25T03:34:09;28.15;;;5.90;;
51312;SDS011;37397;53.226;10.400;2023-04-25T03:36:35;27.63;;;5.25;;
51312;SDS011;37397;53.226;10.400;2023-04-25T03:39:02;28.02;;;6.13;;
51312;SDS011;37397;53.226;10.400;2023-04-25T03:41:30;20.73;;;5.45;;
51312;SDS011;37397;53.226;10.400;2023-04-25T03:44:02;20.77;;;4.95;;
51312;SDS011;37397;53.226;10.400;2023-04-25T03:46:28;22.48;;;5.55;;
51312;SDS011;37397;53.226;10.400;2023-04-25T03:48:55;19.20;;;5.13;;
51312;SDS011;37397;53.226;10.400;2023-04-25T03:51:29;28.23;;;6.15;;
51312;SDS011;37397;53.226;10.400;2023-04-25T03:53:57;20.90;;;5.35;;
51312;SDS011;37397;53.226;10.400;2023-04-25T03:56:44;30.17;;;6.43;;
51312;SDS011;37397;53.226;10.400;2023-04-25T03:59:17;27.73;;;5.85;;
51312;SDS011;37397;53.226;10.400;2023-04-25T04:01:44;22.35;;;5.22;;
51312;SDS011;37397;53.226;10.400;2023-04-25T04:04:10;27.30;;;5.68;;
51312;SDS011;37397;53.226;10.400;2023-04-25T04:06:38;26.17;;;5.82;;
51312;SDS011;37397;53.226;10.400;2023-04-25T04:09:12;22.85;;;5.13;;
51312;SDS011;37397;53.226;10.400;2023-04-25T04:11:41;20.05;;;5.07;;
51312;SDS011;37397;53.226;10.400;2023-04-25T04:14:07;24.00;;;5.28;;
51312;SDS011;37397;53.226;10.400;2023-04-25T04:16:36;20.88;;;5.55;;
51312;SDS011;37397;53.226;10.400;2023-04-25T04:19:03;27.23;;;5.82;;
51312;SDS011;37397;53.226;10.400;2023-04-25T04:21:30;22.00;;;5.40;;
51312;SDS011;37397;53.226;10.400;2023-04-25T04:23:58;24.52;;;5.85;;
51312;SDS011;37397;53.226;10.400;2023-04-25T04:26:29;28.00;;;6.65;;
51312;SDS011;37397;53.226;10.400;2023-04-25T04:29:21;23.38;;;5.28;;
51312;SDS011;37397;53.226;10.400;2023-04-25T04:31:57;26.50;;;5.60;;
51312;SDS011;37397;53.226;10.400;2023-04-25T04:34:24;21.35;;;5.20;;
51312;SDS011;37397;53.226;10.400;2023-04-25T04:36:52;18.30;;;4.57;;
51312;SDS011;37397;53.226;10.400;2023-04-25T04:39:19;26.90;;;5.50;;
51312;SDS011;37397;53.226;10.400;2023-04-25T04:41:57;27.10;;;5.50;;
51312;SDS011;37397;53.226;10.400;2023-04-25T04:44:52;16.48;;;4.65;;
51312;SDS011;37397;53.226;10.400;2023-04-25T04:47:33;27.23;;;5.85;;
51312;SDS011;37397;53.226;10.400;2023-04-25T04:50:13;20.77;;;5.03;;
51312;SDS011;37397;53.226;10.400;2023-04-25T04:53:04;22.63;;;4.85;;
51312;SDS011;37397;53.226;10.400;2023-04-25T04:56:04;19.90;;;4.45;;
51312;SDS011;37397;53.226;10.400;2023-04-25T04:58:49;24.90;;;5.18;;
51312;SDS011;37397;53.226;10.400;2023-04-25T05:01:39;25.70;;;6.32;;
51312;SDS011;37397;53.226;10.400;2023-04-25T05:04:17;22.50;;;4.68;;
51312;SDS011;37397;53.226;10.400;2023-04-25T05:07:04;23.40;;;5.18;;
51312;SDS011;37397;53.226;10.400;2023-04-25T05:09:30;23.98;;;5.93;;
51312;SDS011;37397;53.226;10.400;2023-04-25T05:12:05;17.75;;;4.68;;
51312;SDS011;37397;53.226;10.400;2023-04-25T05:14:50;16.77;;;4.63;;
51312;SDS011;37397;53.226;10.400;2023-04-25T05:17:39;24.77;;;5.15;;
51312;SDS011;37397;53.226;10.400;2023-04-25T05:20:33;23.70;;;5.45;;
51312;SDS011;37397;53.226;10.400;2023-04-25T05:23:11;21.85;;;5.30;;
51312;SDS011;37397;53.226;10.400;2023-04-25T05:25:53;22.85;;;5.35;;
51312;SDS011;37397;53.226;10.400;2023-04-25T05:28:49;28.05;;;5.80;;
51312;SDS011;37397;53.226;10.400;2023-04-25T05:31:36;17.38;;;4.60;;
51312;SDS011;37397;53.226;10.400;2023-04-25T05:34:09;19.90;;;5.15;;
51312;SDS011;37397;53.226;10.400;2023-04-25T05:36:55;20.98;;;4.80;;
51312;SDS011;37397;53.226;10.400;2023-04-25T05:39:21;26.45;;;5.22;;
51312;SDS011;37397;53.226;10.400;2023-04-25T05:42:09;23.80;;;4.43;;
51312;SDS011;37397;53.226;10.400;2023-04-25T05:45:00;21.48;;;4.95;;
51312;SDS011;37397;53.226;10.400;2023-04-25T05:47:50;17.80;;;4.43;;
51312;SDS011;37397;53.226;10.400;2023-04-25T05:50:21;22.67;;;5.35;;
51312;SDS011;37397;53.226;10.400;2023-04-25T05:52:54;23.58;;;4.95;;
51312;SDS011;37397;53.226;10.400;2023-04-25T05:55:28;21.02;;;5.38;;
51312;SDS011;37397;53.226;10.400;2023-04-25T05:57:57;20.13;;;4.03;;
51312;SDS011;37397;53.226;10.400;2023-04-25T06:00:23;22.50;;;5.05;;
51312;SDS011;37397;53.226;10.400;2023-04-25T06:02:51;20.80;;;4.80;;
51312;SDS011;37397;53.226;10.400;2023-04-25T06:05:18;18.48;;;4.75;;
51312;SDS011;37397;53.226;10.400;2023-04-25T06:07:46;18.38;;;4.47;;
51312;SDS011;37397;53.226;10.400;2023-04-25T06:10:13;21.90;;;4.68;;
51312;SDS011;37397;53.226;10.400;2023-04-25T06:12:41;24.80;;;5.10;;
51312;SDS011;37397;53.226;10.400;2023-04-25T06:15:07;26.08;;;5.00;;
51312;SDS011;37397;53.226;10.400;2023-04-25T06:17:52;21.70;;;4.28;;
51312;SDS011;37397;53.226;10.400;2023-04-25T06:20:18;20.90;;;4.60;;
51312;SDS011;37397;53.226;10.400;2023-04-25T06:22:50;21.05;;;4.28;;
51312;SDS011;37397;53.226;10.400;2023-04-25T06:25:19;23.13;;;4.43;;
51312;SDS011;37397;53.226;10.400;2023-04-25T06:27:46;17.60;;;4.70;;
51312;SDS011;37397;53.226;10.400;2023-04-25T06:30:13;18.48;;;4.03;;
51312;SDS011;37397;53.226;10.400;2023-04-25T06:32:39;20.38;;;4.60;;
51312;SDS011;37397;53.226;10.400;2023-04-25T06:35:06;19.17;;;4.05;;
51312;SDS011;37397;53.226;10.400;2023-04-25T06:37:33;17.75;;;4.40;;
51312;SDS011;37397;53.226;10.400;2023-04-25T06:40:00;15.63;;;3.75;;
51312;SDS011;37397;53.226;10.400;2023-04-25T06:42:27;20.90;;;4.80;;
51312;SDS011;37397;53.226;10.400;2023-04-25T06:44:58;18.92;;;3.63;;
51312;SDS011;37397;53.226;10.400;2023-04-25T06:47:27;17.42;;;3.85;;
51312;SDS011;37397;53.226;10.400;2023-04-25T06:49:53;19.23;;;4.35;;
51312;SDS011;37397;53.226;10.400;2023-04-25T06:52:20;18.15;;;4.50;;
51312;SDS011;37397;53.226;10.400;2023-04-25T06:54:49;17.65;;;4.13;;
51312;SDS011;37397;53.226;10.400;2023-04-25T06:57:50;16.00;;;3.90;;
51312;SDS011;37397;53.226;10.400;2023-04-25T07:00:39;18.52;;;3.97;;
51312;SDS011;37397;53.226;10.400;2023-04-25T07:03:06;23.80;;;4.93;;
51312;SDS011;37397;53.226;10.400;2023-04-25T07:05:32;17.90;;;4.25;;
51312;SDS011;37397;53.226;10.400;2023-04-25T07:07:59;19.38;;;4.10;;
51312;SDS011;37397;53.226;10.400;2023-04-25T07:10:26;19.98;;;4.07;;
51312;SDS011;37397;53.226;10.400;2023-04-25T07:12:53;21.20;;;4.57;;
51312;SDS011;37397;53.226;10.400;2023-04-25T07:15:20;14.32;;;4.05;;
51312;SDS011;37397;53.226;10.400;2023-04-25T07:17:48;18.20;;;4.50;;
51312;SDS011;37397;53.226;10.400;2023-04-25T07:20:14;19.05;;;4.22;;
51312;SDS011;37397;53.226;10.400;2023-04-25T07:22:42;20.58;;;4.38;;
51312;SDS011;37397;53.226;10.400;2023-04-25T07:25:09;19.13;;;4.03;;
51312;SDS011;37397;53.226;10.400;2023-04-25T07:27:36;19.33;;;4.20;;
51312;SDS011;37397;53.226;10.400;2023-04-25T07:30:15;18.40;;;3.97;;
51312;SDS011;37397;53.226;10.400;2023-04-25T07:32:41;23.10;;;4.78;;
51312;SDS011;37397;53.226;10.400;2023-04-25T07:35:08;15.32;;;4.07;;
51312;SDS011;37397;53.226;10.400;2023-04-25T07:37:35;15.65;;;4.53;;
51312;SDS011;37397;53.226;10.400;2023-04-25T07:40:08;18.33;;;4.50;;
51312;SDS011;37397;53.226;10.400;2023-04-25T07:42:41;17.27;;;3.67;;
51312;SDS011;37397;53.226;10.400;2023-04-25T07:45:10;17.80;;;4.28;;
51312;SDS011;37397;53.226;10.400;2023-04-25T07:47:38;22.58;;;4.78;;
51312;SDS011;37397;53.226;10.400;2023-04-25T07:50:06;16.80;;;3.83;;
51312;SDS011;37397;53.226;10.400;2023-04-25T07:52:33;14.20;;;3.83;;
51312;SDS011;37397;53.226;10.400;2023-04-25T07:55:07;16.55;;;4.03;;
51312;SDS011;37397;53.226;10.400;2023-04-25T07:57:44;15.52;;;3.85;;
51312;SDS011;37397;53.226;10.400;2023-04-25T08:00:11;21.67;;;4.10;;
51312;SDS011;37397;53.226;10.400;2023-04-25T08:02:47;16.75;;;4.00;;
51312;SDS011;37397;53.226;10.400;2023-04-25T08:05:15;15.60;;;3.92;;
51312;SDS011;37397;53.226;10.400;2023-04-25T08:07:51;12.82;;;3.72;;
51312;SDS011;37397;53.226;10.400;2023-04-25T08:10:18;13.48;;;3.60;;
51312;SDS011;37397;53.226;10.400;2023-04-25T08:12:46;14.35;;;3.85;;
51312;SDS011;37397;53.226;10.400;2023-04-25T08:15:13;12.20;;;2.97;;
51312;SDS011;37397;53.226;10.400;2023-04-25T08:17:41;16.42;;;3.95;;
51312;SDS011;37397;53.226;10.400;2023-04-25T08:20:08;16.98;;;4.13;;
51312;SDS011;37397;53.226;10.400;2023-04-25T08:22:35;18.63;;;3.70;;
51312;SDS011;37397;53.226;10.400;2023-04-25T08:25:30;11.90;;;3.03;;
51312;SDS011;37397;53.226;10.400;2023-04-25T08:27:57;10.70;;;3.17;;
51312;SDS011;37397;53.226;10.400;2023-04-25T08:30:29;13.95;;;3.13;;
51312;SDS011;37397;53.226;10.400;2023-04-25T08:32:55;12.50;;;3.00;;
51312;SDS011;37397;53.226;10.400;2023-04-25T08:35:44;13.30;;;2.92;;
51312;SDS011;37397;53.226;10.400;2023-04-25T08:38:11;12.23;;;3.08;;
51312;SDS011;37397;53.226;10.400;2023-04-25T08:40:38;13.65;;;3.13;;
51312;SDS011;37397;53.226;10.400;2023-04-25T08:43:12;14.50;;;3.05;;
51312;SDS011;37397;53.226;10.400;2023-04-25T08:45:41;9.25;;;2.45;;
51312;SDS011;37397;53.226;10.400;2023-04-25T08:48:14;12.30;;;3.22;;
51312;SDS011;37397;53.226;10.400;2023-04-25T08:50:48;12.55;;;2.80;;
51312;SDS011;37397;53.226;10.400;2023-04-25T08:53:20;9.43;;;2.20;;
51312;SDS011;37397;53.226;10.400;2023-04-25T08:55:51;14.18;;;3.05;;
51312;SDS011;37397;53.226;10.400;2023-04-25T08:58:20;11.65;;;2.97;;
51312;SDS011;37397;53.226;10.400;2023-04-25T09:00:47;10.35;;;2.53;;
51312;SDS011;37397;53.226;10.400;2023-04-25T09:03:16;12.25;;;2.90;;
51312;SDS011;37397;53.226;10.400;2023-04-25T09:05:45;10.93;;;2.92;;
51312;SDS011;37397;53.226;10.400;2023-04-25T09:08:14;13.90;;;2.38;;
51312;SDS011;37397;53.226;10.400;2023-04-25T09:10:41;15.95;;;2.95;;
51312;SDS011;37397;53.226;10.400;2023-04-25T09:13:09;13.77;;;2.47;;
51312;SDS011;37397;53.226;10.400;2023-04-25T09:16:01;9.00;;;2.63;;
51312;SDS011;37397;53.226;10.400;2023-04-25T09:18:41;10.00;;;2.85;;
51312;SDS011;37397;53.226;10.400;2023-04-25T09:21:14;10.25;;;2.60;;
51312;SDS011;37397;53.226;10.400;2023-04-25T09:23:45;9.60;;;2.55;;
51312;SDS011;37397;53.226;10.400;2023-04-25T09:26:14;9.77;;;2.85;;
51312;SDS011;37397;53.226;10.400;2023-04-25T09:28:44;14.70;;;3.05;;
51312;SDS011;37397;53.226;10.400;2023-04-25T09:31:23;10.77;;;2.63;;
51312;SDS011;37397;53.226;10.400;2023-04-25T09:34:00;13.07;;;2.38;;
51312;SDS011;37397;53.226;10.400;2023-04-25T09:36:31;7.45;;;1.88;;
51312;SDS011;37397;53.226;10.400;2023-04-25T09:39:15;6.20;;;1.52;;
51312;SDS011;37397;53.226;10.400;2023-04-25T09:41:47;5.05;;;1.73;;
51312;SDS011;37397;53.226;10.400;2023-04-25T09:44:14;6.93;;;2.00;;
51312;SDS011;37397;53.226;10.400;2023-04-25T09:46:44;8.98;;;2.00;;
51312;SDS011;37397;53.226;10.400;2023-04-25T09:49:22;6.85;;;2.00;;
51312;SDS011;37397;53.226;10.400;2023-04-25T09:51:59;8.13;;;1.98;;
51312;SDS011;37397;53.226;10.400;2023-04-25T09:54:36;9.70;;;2.20;;
51312;SDS011;37397;53.226;10.400;2023-04-25T09:57:13;9.63;;;2.40;;
51312;SDS011;37397;53.226;10.400;2023-04-25T09:59:45;8.15;;;2.35;;
51312;SDS011;37397;53.226;10.400;2023-04-25T10:02:15;9.68;;;2.20;;
51312;SDS011;37397;53.226;10.400;2023-04-25T10:07:26;10.70;;;2.30;;
51312;SDS011;37397;53.226;10.400;2023-04-25T10:10:01;10.75;;;2.88;;
51312;SDS011;37397;53.226;10.400;2023-04-25T10:12:30;11.02;;;2.53;;
51312;SDS011;37397;53.226;10.400;2023-04-25T10:14:58;9.35;;;2.67;;
51312;SDS011;37397;53.226;10.400;2023-04-25T10:17:26;11.18;;;2.42;;
51312;SDS011;37397;53.226;10.400;2023-04-25T10:19:54;9.48;;;2.00;;
51312;SDS011;37397;53.226;10.400;2023-04-25T10:22:37;6.70;;;2.08;;
51312;SDS011;37397;53.226;10.400;2023-04-25T10:25:05;8.90;;;1.92;;
51312;SDS011;37397;53.226;10.400;2023-04-25T10:27:34;8.32;;;2.00;;
51312;SDS011;37397;53.226;10.400;2023-04-25T10:32:42;6.80;;;1.80;;
51312;SDS011;37397;53.226;10.400;2023-04-25T10:35:16;8.68;;;2.22;;
51312;SDS011;37397;53.226;10.400;2023-04-25T10:37:56;7.57;;;1.75;;
51312;SDS011;37397;53.226;10.400;2023-04-25T10:40:26;6.50;;;2.15;;
51312;SDS011;37397;53.226;10.400;2023-04-25T10:42:53;8.10;;;2.28;;
51312;SDS011;37397;53.226;10.400;2023-04-25T10:45:22;6.85;;;2.13;;
51312;SDS011;37397;53.226;10.400;2023-04-25T10:47:49;7.72;;;2.00;;
51312;SDS011;37397;53.226;10.400;2023-04-25T10:50:15;10.07;;;2.63;;
51312;SDS011;37397;53.226;10.400;2023-04-25T10:52:42;9.35;;;2.05;;
51312;SDS011;37397;53.226;10.400;2023-04-25T10:55:10;7.65;;;2.03;;
51312;SDS011;37397;53.226;10.400;2023-04-25T11:00:14;8.70;;;2.00;;
51312;SDS011;37397;53.226;10.400;2023-04-25T11:02:46;10.55;;;2.72;;
51312;SDS011;37397;53.226;10.400;2023-04-25T11:07:59;11.23;;;2.60;;
51312;SDS011;37397;53.226;10.400;2023-04-25T11:10:33;7.00;;;1.80;;
51312;SDS011;37397;53.226;10.400;2023-04-25T11:13:03;13.95;;;2.60;;
51312;SDS011;37397;53.226;10.400;2023-04-25T11:15:29;7.72;;;2.00;;
51312;SDS011;37397;53.226;10.400;2023-04-25T11:17:56;7.88;;;2.05;;
51312;SDS011;37397;53.226;10.400;2023-04-25T11:20:24;6.88;;;1.77;;
51312;SDS011;37397;53.226;10.400;2023-04-25T11:22:52;8.95;;;2.20;;
51312;SDS011;37397;53.226;10.400;2023-04-25T11:25:19;9.38;;;2.38;;
51312;SDS011;37397;53.226;10.400;2023-04-25T11:27:53;11.25;;;2.40;;
51312;SDS011;37397;53.226;10.400;2023-04-25T11:30:20;13.18;;;2.33;;
51312;SDS011;37397;53.226;10.400;2023-04-25T11:32:48;11.18;;;2.20;;
51312;SDS011;37397;53.226;10.400;2023-04-25T11:35:15;8.27;;;2.58;;
51312;SDS011;37397;53.226;10.400;2023-04-25T11:37:43;10.75;;;2.10;;
51312;SDS011;37397;53.226;10.400;2023-04-25T11:40:10;7.32;;;2.40;;
51312;SDS011;37397;53.226;10.400;2023-04-25T11:42:47;8.50;;;2.42;;
51312;SDS011;37397;53.226;10.400;2023-04-25T11:45:14;9.75;;;2.60;;
51312;SDS011;37397;53.226;10.400;2023-04-25T11:47:41;15.65;;;2.80;;
51312;SDS011;37397;53.226;10.400;2023-04-25T11:50:08;10.85;;;2.58;;
51312;SDS011;37397;53.226;10.400;2023-04-25T11:52:39;7.35;;;2.13;;
51312;SDS011;37397;53.226;10.400;2023-04-25T11:55:07;7.65;;;1.90;;
51312;SDS011;37397;53.226;10.400;2023-04-25T11:57:40;8.30;;;2.20;;
51312;SDS011;37397;53.226;10.400;2023-04-25T12:00:08;8.43;;;1.92;;
51312;SDS011;37397;53.226;10.400;2023-04-25T12:02:44;7.78;;;2.35;;
51312;SDS011;37397;53.226;10.400;2023-04-25T12:05:13;7.10;;;1.83;;
51312;SDS011;37397;53.226;10.400;2023-04-25T12:07:47;12.13;;;2.30;;
51312;SDS011;37397;53.226;10.400;2023-04-25T12:10:14;8.20;;;2.20;;
51312;SDS011;37397;53.226;10.400;2023-04-25T12:12:42;10.73;;;2.10;;
51312;SDS011;37397;53.226;10.400;2023-04-25T12:15:11;10.85;;;2.30;;
51312;SDS011;37397;53.226;10.400;2023-04-25T12:17:38;6.88;;;1.73;;
51312;SDS011;37397;53.226;10.400;2023-04-25T12:20:06;9.00;;;1.83;;
51312;SDS011;37397;53.226;10.400;2023-04-25T12:22:39;8.15;;;1.90;;
51312;SDS011;37397;53.226;10.400;2023-04-25T12:25:11;13.40;;;2.30;;
51312;SDS011;37397;53.226;10.400;2023-04-25T12:27:39;10.05;;;2.35;;
51312;SDS011;37397;53.226;10.400;2023-04-25T12:30:10;7.93;;;1.95;;
51312;SDS011;37397;53.226;10.400;2023-04-25T12:32:36;10.20;;;2.30;;
51312;SDS011;37397;53.226;10.400;2023-04-25T12:35:04;11.63;;;3.03;;
51312;SDS011;37397;53.226;10.400;2023-04-25T12:37:32;10.10;;;2.20;;
51312;SDS011;37397;53.226;10.400;2023-04-25T12:39:59;5.88;;;1.73;;
51312;SDS011;37397;53.226;10.400;2023-04-25T12:42:25;8.88;;;2.08;;
51312;SDS011;37397;53.226;10.400;2023-04-25T12:44:52;9.98;;;2.00;;
51312;SDS011;37397;53.226;10.400;2023-04-25T12:47:18;9.27;;;2.45;;
51312;SDS011;37397;53.226;10.400;2023-04-25T12:49:45;12.45;;;2.25;;
51312;SDS011;37397;53.226;10.400;2023-04-25T12:52:11;8.95;;;1.80;;
51312;SDS011;37397;53.226;10.400;2023-04-25T12:54:38;12.13;;;2.05;;
51312;SDS011;37397;53.226;10.400;2023-04-25T12:57:05;6.68;;;1.90;;
51312;SDS011;37397;53.226;10.400;2023-04-25T12:59:31;10.82;;;1.90;;
51312;SDS011;37397;53.226;10.400;2023-04-25T13:01:58;9.23;;;2.20;;
51312;SDS011;37397;53.226;10.400;2023-04-25T13:04:24;13.20;;;2.25;;
51312;SDS011;37397;53.226;10.400;2023-04-25T13:06:51;9.93;;;1.90;;
51312;SDS011;37397;53.226;10.400;2023-04-25T13:09:18;9.00;;;1.60;;
51312;SDS011;37397;53.226;10.400;2023-04-25T13:11:44;9.63;;;2.08;;
51312;SDS011;37397;53.226;10.400;2023-04-25T13:14:12;8.13;;;2.03;;
51312;SDS011;37397;53.226;10.400;2023-04-25T13:16:38;7.47;;;2.03;;
51312;SDS011;37397;53.226;10.400;2023-04-25T13:19:05;6.95;;;1.95;;
51312;SDS011;37397;53.226;10.400;2023-04-25T13:21:33;7.78;;;1.95;;
51312;SDS011;37397;53.226;10.400;2023-04-25T13:24:00;9.32;;;1.80;;
51312;SDS011;37397;53.226;10.400;2023-04-25T13:26:26;6.93;;;2.05;;
51312;SDS011;37397;53.226;10.400;2023-04-25T13:28:53;8.25;;;2.38;;
51312;SDS011;37397;53.226;10.400;2023-04-25T13:31:19;12.55;;;2.28;;
51312;SDS011;37397;53.226;10.400;2023-04-25T13:33:46;10.73;;;2.10;;
51312;SDS011;37397;53.226;10.400;2023-04-25T13:36:12;13.65;;;2.42;;
51312;SDS011;37397;53.226;10.400;2023-04-25T13:38:39;6.88;;;1.65;;
51312;SDS011;37397;53.226;10.400;2023-04-25T13:41:07;5.18;;;1.55;;
51312;SDS011;37397;53.226;10.400;2023-04-25T13:43:34;8.85;;;2.10;;
51312;SDS011;37397;53.226;10.400;2023-04-25T13:46:01;3.58;;;1.50;;
51312;SDS011;37397;53.226;10.400;2023-04-25T13:48:27;6.13;;;1.73;;
51312;SDS011;37397;53.226;10.400;2023-04-25T13:50:54;5.05;;;1.65;;
51312;SDS011;37397;53.226;10.400;2023-04-25T13:53:20;9.77;;;1.65;;
51312;SDS011;37397;53.226;10.400;2023-04-25T13:55:47;9.02;;;1.85;;
51312;SDS011;37397;53.226;10.400;2023-04-25T13:58:13;6.93;;;1.90;;
51312;SDS011;37397;53.226;10.400;2023-04-25T14:00:40;5.40;;;1.48;;
51312;SDS011;37397;53.226;10.400;2023-04-25T14:03:09;9.15;;;1.90;;
51312;SDS011;37397;53.226;10.400;2023-04-25T14:05:36;9.95;;;1.85;;
51312;SDS011;37397;53.226;10.400;2023-04-25T14:08:05;9.93;;;2.00;;
51312;SDS011;37397;53.226;10.400;2023-04-25T14:10:33;8.38;;;1.88;;
51312;SDS011;37397;53.226;10.400;2023-04-25T14:13:00;7.93;;;2.35;;
51312;SDS011;37397;53.226;10.400;2023-04-25T14:15:27;7.68;;;1.90;;
51312;SDS011;37397;53.226;10.400;2023-04-25T14:17:53;7.75;;;2.47;;
51312;SDS011;37397;53.226;10.400;2023-04-25T14:20:20;10.63;;;1.95;;
51312;SDS011;37397;53.226;10.400;2023-04-25T14:22:47;6.82;;;1.88;;
51312;SDS011;37397;53.226;10.400;2023-04-25T14:25:14;8.27;;;2.22;;
51312;SDS011;37397;53.226;10.400;2023-04-25T14:27:40;7.32;;;2.03;;
51312;SDS011;37397;53.226;10.400;2023-04-25T14:30:07;10.90;;;2.50;;
51312;SDS011;37397;53.226;10.400;2023-04-25T14:32:35;10.68;;;2.08;;
51312;SDS011;37397;53.226;10.400;2023-04-25T14:35:02;7.65;;;2.05;;
51312;SDS011;37397;53.226;10.400;2023-04-25T14:37:28;7.63;;;2.05;;
51312;SDS011;37397;53.226;10.400;2023-04-25T14:39:55;6.32;;;1.95;;
51312;SDS011;37397;53.226;10.400;2023-04-25T14:42:21;9.40;;;2.20;;
51312;SDS011;37397;53.226;10.400;2023-04-25T14:44:47;8.48;;;2.15;;
51312;SDS011;37397;53.226;10.400;2023-04-25T14:47:14;7.70;;;2.00;;
51312;SDS011;37397;53.226;10.400;2023-04-25T14:49:41;8.93;;;2.25;;
51312;SDS011;37397;53.226;10.400;2023-04-25T14:52:08;8.77;;;2.47;;
51312;SDS011;37397;53.226;10.400;2023-04-25T14:54:34;9.63;;;2.42;;